83NY weather

Norcross Helipad Heliport
Rochester, New York, United States

Public forecast

Using degrees Fahrenheit for public forecast. Weather courtesy of forecast.io.

Closest aviation weather report (METAR) to Norcross Helipad Heliport

Closest report is Greater Rochester International Airport, 1.0 nm (1.9 km) WSW. Retrieved 2019/10/19 09:54 UTC (52 minutes ago):

KROC 190954Z 24005KT 10SM CLR 01/00 A3007 RMK AO2 SLP190 T00110000

Closest aviation forecast (TAF) to Norcross Helipad Heliport

Closest forecast is Greater Rochester International Airport, 1.0 nm (1.9 km) WSW. Retrieved 2019/10/19 06:22 UTC (4 hours ago):

TAF KROC 190520Z 1906/2006 24004KT P6SM SCT250 FM191200 VRB04KT P6SM SCT250 FM191800 09006KT P6SM SCT250 FM200200 14006KT P6SM SCT250